首页
METAR-TAF:

METAR-TAF

机场 :

斯特拉斯堡国际机场

斯特拉斯堡, 法国

纬度: 48-33N, 经度: 007-38E, 海拔: 153米

当前天气观测

该预报发布于41分钟前的20:00 UTC
风速4节,风向东南
温度 4°C
湿度 93%
气压 1004 hPa
能见度10公里或以上
多云层高于3500英尺
阴天层高于4300英尺

METAR: LFST 122000Z AUTO 14004KT 9999 BKN035 OVC043 04/03 Q1004 NOSIG

时间: 21:41 (20:41 UTC)

预报

该预报发布于3小时和41分钟前的17:00 UTC
预报有效从12日的 18点(UTC)到 13日的 18点(UTC)
风速5节,风向
能见度10公里或以上
多云层高于4000英尺
成为
从 12日的 23点(UTC)到 13日的 02点(UTC)
能見度: 3000
轻雾
短暂存在
从 13日的 02点(UTC)到 13日的 08点(UTC)
能見度: 0500
几率 30% :
短暂存在
从 13日的 03点(UTC)到 13日的 08点(UTC)
能見度: 0300
冻雾
成为
从 13日的 08点(UTC)到 13日的 10点(UTC)
能見度: 4000
散云层高于300英尺
多云层高于600英尺
轻雾
成为
从 13日的 10点(UTC)到 13日的 12点(UTC)
能見度: 8000
多云层高于3000英尺

TAF: LFST 121700Z 1218/1318 19005KT 9999 BKN040 BECMG 1223/1302 3000 BR TEMPO 1302/1308 0500 FG VV/// PROB30 TEMPO 1303/1308 0300 FZFG BECMG 1308/1310 4000 BR SCT003 BKN006 BECMG 1310/1312 8000 NSW BKN030

超过4000个机场的气象观测和天气预报(METAR&TAF报告)。

可查询的气象台以黄色和红色小点在地图上表示。

将鼠标移到小点上方,可查看气象台名称。

然后点击查看天气观测和预报。

如需切换地图:点击带黑十字的绿色按钮放大地图;点击带横线的绿色按钮缩小地图;或者点击绿色箭头查看邻近地区的地图。


METAR-TAF: